Time;durP1;ratioP1;P1;durP2;ratioP2;P2;SDS_P1;SDS_P2;PMS_P1;PMS_P2;Temp;Humidity;BMP_temperature;BMP_pressure;BME280_temperature;BME280_humidity;BME280_pressure;Samples;Min_cycle;Max_cycle;Signal;HPM_P1;HPM_P2
2022/08/03 00:01:41;;;;;;;1.80;1.30;;;;;;;18.28;56.50;94827.41;5089993;28;20024;-78
2022/08/03 00:04:07;;;;;;;2.08;1.30;;;;;;;18.07;56.40;94793.84;5089909;28;20036;-80
2022/08/03 00:06:33;;;;;;;3.15;1.40;;;;;;;18.13;56.44;94808.09;5089937;28;20162;-78
2022/08/03 00:08:59;;;;;;;3.00;1.30;;;;;;;18.37;56.65;94857.09;5071881;28;20425;-78
2022/08/03 00:11:25;;;;;;;2.08;1.35;;;;;;;18.08;56.81;94811.25;5109628;28;20043;-78
2022/08/03 00:13:51;;;;;;;2.50;1.30;;;;;;;18.40;56.80;94854.09;5113916;28;20505;-78
2022/08/03 00:16:16;;;;;;;2.10;1.38;;;;;;;18.01;56.99;94793.72;5114048;28;20040;-78
2022/08/03 00:18:42;;;;;;;2.15;1.38;;;;;;;18.05;56.97;94801.09;5113525;28;20027;-78
2022/08/03 00:21:07;;;;;;;2.08;1.30;;;;;;;18.35;57.23;94850.38;5114401;28;20400;-78
2022/08/03 00:23:33;;;;;;;2.55;1.30;;;;;;;18.28;57.18;94843.19;5113534;28;20436;-78
2022/08/03 00:25:58;;;;;;;1.83;1.35;;;;;;;18.09;57.14;94812.88;5095746;28;20116;-78
2022/08/03 00:28:24;;;;;;;2.30;1.40;;;;;;;18.30;57.30;94846.47;5103722;28;20028;-78
2022/08/03 00:30:49;;;;;;;4.57;1.50;;;;;;;18.07;57.35;94814.03;5112356;28;20122;-79
2022/08/03 00:33:15;;;;;;;4.13;1.58;;;;;;;18.02;57.34;94811.94;5111915;27;20028;-78
2022/08/03 00:35:40;;;;;;;2.10;1.50;;;;;;;17.96;57.61;94801.28;5111719;28;20032;-78
2022/08/03 00:38:06;;;;;;;1.90;1.40;;;;;;;17.80;57.75;94792.53;5111544;28;20106;-78
2022/08/03 00:40:32;;;;;;;4.25;1.40;;;;;;;17.85;58.08;94824.34;5111624;28;20028;-78
2022/08/03 00:43:06;;;;;;;3.10;1.50;;;;;;;17.69;58.25;94798.13;5111605;28;20477;-78
2022/08/03 00:45:34;;;;;;;1.80;1.27;;;;;;;17.79;58.32;94811.06;5113095;28;20432;-78
2022/08/03 00:47:59;;;;;;;2.00;1.50;;;;;;;17.64;58.38;94787.31;5112029;28;20478;-78
2022/08/03 00:50:26;;;;;;;2.28;1.40;;;;;;;17.72;58.29;94797.78;5113207;28;20042;-78
2022/08/03 00:52:53;;;;;;;2.45;1.50;;;;;;;18.05;58.24;94847.56;5113058;28;20016;-78
2022/08/03 00:55:18;;;;;;;1.90;1.30;;;;;;;18.13;58.26;94844.88;5113191;28;20032;-78
2022/08/03 00:57:44;;;;;;;2.58;1.80;;;;;;;17.77;57.83;94787.56;5113043;28;20094;-78
2022/08/03 01:00:10;;;;;;;2.25;1.40;;;;;;;17.87;57.89;94797.91;5111777;28;20383;-78
2022/08/03 01:02:37;;;;;;;2.00;1.40;;;;;;;17.79;58.03;94803.19;5113163;28;20023;-78
2022/08/03 01:05:03;;;;;;;1.73;1.40;;;;;;;17.90;58.75;94846.66;5111751;28;20493;-78
2022/08/03 01:08:01;;;;;;;1.92;1.40;;;;;;;17.97;58.48;94840.56;5112811;28;20057;-79
2022/08/03 01:10:55;;;;;;;2.45;1.42;;;;;;;17.98;58.74;94836.13;5104573;28;20035;-78
2022/08/03 01:13:39;;;;;;;1.98;1.50;;;;;;;17.97;58.61;94834.47;5112783;28;20037;-78
2022/08/03 01:16:13;;;;;;;2.67;1.42;;;;;;;17.97;58.50;94840.56;5113351;28;20039;-78
2022/08/03 01:18:52;;;;;;;3.05;1.40;;;;;;;17.97;58.55;94837.09;5112567;28;20024;-78
2022/08/03 01:21:25;;;;;;;1.95;1.35;;;;;;;17.59;58.49;94779.94;5094704;28;20132;-78
2022/08/03 01:23:57;;;;;;;6.03;1.73;;;;;;;17.72;59.98;94837.19;5093764;28;20307;-79
2022/08/03 01:26:52;;;;;;;1.90;1.40;;;;;;;17.69;60.22;94837.53;5112791;28;20478;-78
2022/08/03 01:29:35;;;;;;;3.03;1.63;;;;;;;17.64;60.27;94830.16;5112357;28;20028;-78
2022/08/03 01:32:02;;;;;;;2.22;1.50;;;;;;;17.65;60.07;94834.41;5112807;28;20057;-78
2022/08/03 01:34:31;;;;;;;3.25;1.70;;;;;;;17.30;59.51;94774.44;5094051;28;20035;-78
2022/08/03 01:36:56;;;;;;;2.90;1.65;;;;;;;17.33;60.22;94792.50;5077478;28;20027;-78
2022/08/03 01:39:22;;;;;;;1.92;1.58;;;;;;;17.10;60.66;94784.50;5094004;28;20116;-78
2022/08/03 01:42:06;;;;;;;4.93;1.70;;;;;;;17.12;61.41;94791.25;5093761;28;20024;-78
2022/08/03 01:44:37;;;;;;;3.90;1.83;;;;;;;17.02;61.48;94802.91;5090319;28;20075;-78
2022/08/03 01:47:03;;;;;;;2.25;1.75;;;;;;;17.04;60.76;94786.00;5074046;28;20409;-78
2022/08/03 01:49:34;;;;;;;3.05;1.95;;;;;;;16.93;61.51;94795.03;5090214;28;20044;-78
2022/08/03 01:51:59;;;;;;;2.10;1.50;;;;;;;17.18;61.25;94837.00;5090629;28;20497;-79
2022/08/03 01:54:25;;;;;;;2.65;1.63;;;;;;;16.95;61.05;94787.84;5090312;28;20055;-78
2022/08/03 01:56:51;;;;;;;2.03;1.60;;;;;;;16.93;60.71;94781.09;5090406;28;20035;-79
2022/08/03 01:59:16;;;;;;;2.63;1.75;;;;;;;17.27;60.75;94837.78;5091246;28;20511;-78
2022/08/03 02:01:42;;;;;;;3.15;1.73;;;;;;;16.97;60.57;94790.31;5073376;28;20521;-78
2022/08/03 02:04:07;;;;;;;4.22;1.70;;;;;;;17.04;61.27;94828.00;5091480;28;20020;-79
2022/08/03 02:06:33;;;;;;;3.60;1.70;;;;;;;16.66;61.55;94787.50;5091883;28;20028;-78
2022/08/03 02:08:59;;;;;;;2.78;1.65;;;;;;;17.04;61.66;94853.41;5091489;28;20031;-78
2022/08/03 02:11:25;;;;;;;2.60;1.70;;;;;;;16.95;61.62;94840.31;5071257;28;20482;-78
2022/08/03 02:13:50;;;;;;;3.15;1.80;;;;;;;16.66;61.84;94790.97;5069829;28;20529;-78
2022/08/03 02:16:16;;;;;;;2.60;1.90;;;;;;;16.72;61.87;94786.84;5053152;28;20028;-78
2022/08/03 02:18:41;;;;;;;3.33;1.52;;;;;;;17.05;61.72;94834.06;5070893;28;20062;-78
2022/08/03 02:21:09;;;;;;;2.97;1.70;;;;;;;16.70;61.77;94787.00;5069571;28;20036;-78
2022/08/03 02:23:35;;;;;;;3.05;1.90;;;;;;;16.82;61.72;94792.75;5069501;28;20418;-78
2022/08/03 02:26:02;;;;;;;3.50;1.58;;;;;;;16.72;61.67;94781.63;5069631;28;20031;-78
2022/08/03 02:28:38;;;;;;;1.80;1.40;;;;;;;16.79;61.47;94774.72;5070814;28;20270;-78
2022/08/03 02:31:05;;;;;;;3.13;1.52;;;;;;;16.85;61.49;94776.69;5069338;28;20037;-78
2022/08/03 02:33:33;;;;;;;1.95;1.42;;;;;;;16.98;61.45;94798.00;5069623;28;20560;-78
2022/08/03 02:35:59;;;;;;;1.90;1.40;;;;;;;17.19;61.58;94836.03;5069004;28;20115;-78
2022/08/03 02:38:36;;;;;;;1.85;1.50;;;;;;;16.91;61.31;94783.91;5052609;28;20033;-79
2022/08/03 02:41:03;;;;;;;2.05;1.50;;;;;;;17.20;61.47;94833.22;5069288;28;20032;-78
2022/08/03 02:43:29;;;;;;;2.28;1.70;;;;;;;16.90;61.22;94774.38;5069433;28;20063;-78
2022/08/03 02:45:54;;;;;;;2.20;1.50;;;;;;;17.24;61.06;94838.94;5069155;28;20135;-78
2022/08/03 02:48:25;;;;;;;2.10;1.50;;;;;;;16.89;61.12;94785.06;5070449;28;20032;-78
2022/08/03 02:50:51;;;;;;;;;;;;;;;17.25;61.10;94834.53;5071066;28;20079;-78
2022/08/03 02:53:17;;;;;;;2.72;1.50;;;;;;;17.26;60.95;94826.47;5070667;28;19916;-78
2022/08/03 02:55:42;;;;;;;2.00;1.30;;;;;;;17.32;60.68;94833.69;5069320;28;20055;-78
2022/08/03 02:58:08;;;;;;;1.95;1.33;;;;;;;16.99;60.67;94780.44;5069349;28;20078;-78
2022/08/03 03:00:34;;;;;;;1.75;1.38;;;;;;;17.16;60.39;94802.22;5052713;28;20082;-78
2022/08/03 03:03:00;;;;;;;2.00;1.50;;;;;;;17.36;60.27;94844.69;5069212;28;20016;-78
2022/08/03 03:05:25;;;;;;;2.45;1.45;;;;;;;17.37;60.34;94838.44;5069243;28;20032;-78
2022/08/03 03:07:51;;;;;;;2.47;1.55;;;;;;;16.96;60.10;94781.59;5052437;28;20040;-78
2022/08/03 03:10:16;;;;;;;4.97;1.70;;;;;;;16.94;60.48;94794.06;5079359;28;20090;-78
2022/08/03 03:12:42;;;;;;;2.10;1.60;;;;;;;16.91;60.64;94797.03;5090917;28;20047;-78
2022/08/03 03:15:08;;;;;;;2.28;1.55;;;;;;;17.10;61.39;94860.63;5089349;28;20063;-78
2022/08/03 03:17:33;;;;;;;1.77;1.40;;;;;;;16.92;61.48;94819.66;5072458;28;20028;-78
2022/08/03 03:19:59;;;;;;;2.42;1.77;;;;;;;17.00;61.26;94831.13;5089298;28;20035;-78
2022/08/03 03:22:24;;;;;;;2.28;1.60;;;;;;;17.24;61.18;94865.19;5089334;28;20071;-78
2022/08/03 03:24:50;;;;;;;3.38;1.52;;;;;;;17.31;60.83;94858.31;5090698;28;20040;-78
2022/08/03 03:27:16;;;;;;;3.20;1.50;;;;;;;17.34;60.76;94865.84;5089014;28;20024;-78
2022/08/03 03:29:41;;;;;;;2.17;1.60;;;;;;;16.95;60.75;94819.31;5088938;28;20555;-78
2022/08/03 03:32:07;;;;;;;2.05;1.42;;;;;;;16.87;61.12;94810.63;5090011;28;20032;-78
2022/08/03 03:34:32;;;;;;;2.13;1.50;;;;;;;17.24;61.25;94875.69;5090111;28;20028;-78
2022/08/03 03:36:58;;;;;;;2.20;1.42;;;;;;;16.86;61.20;94814.25;5089176;28;20081;-78
2022/08/03 03:39:23;;;;;;;2.28;1.40;;;;;;;16.97;61.05;94827.03;5089050;28;20020;-78
2022/08/03 03:41:49;;;;;;;2.35;1.50;;;;;;;17.29;61.03;94878.66;5089028;28;20031;-78
2022/08/03 03:44:14;;;;;;;2.28;1.40;;;;;;;16.97;60.82;94822.59;5092789;28;20040;-78
2022/08/03 03:46:40;;;;;;;2.35;1.50;;;;;;;17.04;60.68;94835.06;5094813;28;20027;-78
2022/08/03 03:49:08;;;;;;;2.08;1.63;;;;;;;16.89;61.04;94809.50;5107905;28;20092;-78
2022/08/03 03:51:33;;;;;;;3.05;1.80;;;;;;;17.27;61.29;94875.34;5094136;28;20029;-78
2022/08/03 03:54:00;;;;;;;3.80;1.60;;;;;;;16.84;61.60;94819.66;5102419;28;20374;-78
2022/08/03 03:56:26;;;;;;;4.38;1.75;;;;;;;17.11;61.85;94880.66;5114967;28;20477;-78
2022/08/03 03:58:52;;;;;;;2.13;1.55;;;;;;;16.75;61.88;94829.31;5096443;28;20074;-77
2022/08/03 04:01:17;;;;;;;2.00;1.60;;;;;;;16.98;62.11;94879.34;5114843;28;20528;-78
2022/08/03 04:03:43;;;;;;;3.22;1.80;;;;;;;16.97;62.75;94890.00;5096026;28;20024;-78
2022/08/03 04:11:42;;;;;;;2.63;1.60;;;;;;;17.05;62.15;94884.75;5093885;28;20047;-78
2022/08/03 04:14:27;;;;;;;2.10;1.70;;;;;;;16.89;61.54;94829.66;5075788;28;20028;-78
2022/08/03 04:16:58;;;;;;;2.40;1.90;;;;;;;17.56;60.26;94838.06;5093703;28;20031;-78
2022/08/03 04:19:35;;;;;;;2.25;1.88;;;;;;;20.67;52.36;94877.53;5093449;28;20024;-78
2022/08/03 04:22:04;;;;;;;3.08;1.63;;;;;;;22.86;45.54;94842.81;5093706;28;20055;-79
2022/08/03 04:24:49;;;;;;;2.60;1.58;;;;;;;23.03;44.92;94840.59;5075579;28;20032;-78
2022/08/03 04:27:16;;;;;;;2.17;1.70;;;;;;;23.93;42.93;94831.13;5074622;28;20043;-78
2022/08/03 04:29:45;;;;;;;1.80;1.55;;;;;;;25.81;39.41;94864.25;5077267;28;20027;-78
2022/08/03 04:32:10;;;;;;;4.45;1.92;;;;;;;26.36;37.56;94821.69;5075118;28;20074;-78
2022/08/03 04:34:36;;;;;;;2.50;1.45;;;;;;;26.41;37.14;94827.16;5093879;28;20063;-79
2022/08/03 04:37:02;;;;;;;3.58;1.50;;;;;;;25.90;38.86;94867.47;5076536;28;20436;-80
2022/08/03 04:39:29;;;;;;;2.95;1.65;;;;;;;26.85;36.23;94837.63;5075115;28;20115;-79
2022/08/03 04:41:57;;;;;;;2.58;1.60;;;;;;;28.01;34.01;94841.47;5094197;28;20032;-80
2022/08/03 04:44:23;;;;;;;4.82;2.00;;;;;;;28.31;33.86;94843.16;5076509;28;20066;-80
2022/08/03 04:46:49;;;;;;;3.25;1.75;;;;;;;29.05;32.38;94848.56;5110262;28;20030;-80
2022/08/03 04:49:14;;;;;;;5.75;2.15;;;;;;;29.65;32.74;94879.25;5094819;28;20028;-80
2022/08/03 04:51:41;;;;;;;3.03;1.73;;;;;;;29.94;30.85;94863.06;5074816;28;20028;-79
2022/08/03 04:54:10;;;;;;;2.95;1.90;;;;;;;30.13;30.45;94867.06;5092944;28;20024;-80
2022/08/03 04:56:39;;;;;;;2.78;1.70;;;;;;;30.44;29.99;94859.44;5079354;28;20028;-80
2022/08/03 04:59:04;;;;;;;3.42;1.98;;;;;;;30.73;30.18;94855.50;5112715;28;20101;-80
2022/08/03 05:01:30;;;;;;;3.55;1.50;;;;;;;31.17;29.75;94855.44;5113210;28;20023;-80
2022/08/03 05:03:55;;;;;;;3.78;1.98;;;;;;;31.12;29.61;94862.59;5113036;28;20031;-80
2022/08/03 05:06:21;;;;;;;2.88;1.50;;;;;;;30.23;31.93;94856.53;5113378;28;20039;-80
2022/08/03 05:08:46;;;;;;;7.60;2.10;;;;;;;28.65;34.23;94904.75;5112880;28;20049;-80
2022/08/03 05:11:13;;;;;;;10.30;2.50;;;;;;;27.74;35.23;94905.16;5113374;28;20418;-80
2022/08/03 05:13:39;;;;;;;8.27;2.10;;;;;;;26.55;38.19;94867.78;5109775;28;20080;-79
2022/08/03 05:16:04;;;;;;;5.93;2.72;;;;;;;25.71;40.13;94854.09;5112348;28;20081;-79
2022/08/03 05:18:31;;;;;;;7.20;2.90;;;;;;;25.61;41.00;94891.84;5112973;28;20489;-79
2022/08/03 05:20:56;;;;;;;10.85;2.92;;;;;;;25.41;41.84;94907.19;5107432;28;20103;-79
2022/08/03 05:23:22;;;;;;;13.38;2.72;;;;;;;24.91;42.44;94881.31;5075743;28;20120;-79
2022/08/03 05:25:47;;;;;;;6.45;2.70;;;;;;;24.64;43.06;94887.81;5094850;28;20032;-79
2022/08/03 05:28:13;;;;;;;4.70;2.85;;;;;;;24.73;42.82;94921.06;5073770;28;20569;-79
2022/08/03 05:30:38;;;;;;;5.13;2.92;;;;;;;24.51;43.53;94923.19;5092086;28;20379;-79
2022/08/03 05:33:04;;;;;;;4.20;2.72;;;;;;;24.01;44.02;94885.78;5093328;28;20433;-79
2022/08/03 05:35:30;;;;;;;6.38;2.60;;;;;;;23.86;44.13;94894.00;5092315;28;20034;-79
2022/08/03 05:37:55;;;;;;;3.88;2.35;;;;;;;23.62;44.25;94879.50;5092048;28;20020;-79
2022/08/03 05:40:22;;;;;;;4.65;2.67;;;;;;;23.80;44.85;94918.69;5092939;28;20052;-79
2022/08/03 05:42:48;;;;;;;4.93;2.58;;;;;;;23.51;45.24;94907.44;5096671;28;20552;-79
2022/08/03 05:45:14;;;;;;;5.78;2.45;;;;;;;23.50;44.78;94897.88;5104459;27;20135;-79
2022/08/03 05:47:40;;;;;;;4.25;2.50;;;;;;;23.30;44.64;94883.81;5122493;27;20015;-79
2022/08/03 05:50:06;;;;;;;4.68;2.60;;;;;;;23.21;45.43;94885.88;5120949;27;20036;-79
2022/08/03 05:52:32;;;;;;;5.57;2.90;;;;;;;23.27;45.60;94887.69;5120510;27;20024;-80
2022/08/03 05:54:57;;;;;;;6.65;2.95;;;;;;;23.52;45.79;94925.00;5120975;27;20412;-79
2022/08/03 05:57:24;;;;;;;7.50;3.28;;;;;;;23.37;45.37;94892.56;5127856;27;20618;-79
2022/08/03 05:59:49;;;;;;;5.90;2.67;;;;;;;23.23;45.68;94902.34;5110200;28;20085;-80
2022/08/03 06:02:15;;;;;;;5.97;3.30;;;;;;;23.10;45.37;94899.72;5073795;28;20444;-78
2022/08/03 06:04:40;;;;;;;5.68;2.65;;;;;;;23.45;46.34;94937.44;5073550;28;20036;-79
2022/08/03 06:07:08;;;;;;;4.72;2.53;;;;;;;23.12;46.55;94903.78;5078014;27;20092;-78
2022/08/03 06:09:34;;;;;;;7.82;2.67;;;;;;;23.11;46.01;94893.38;5118888;27;20382;-79
2022/08/03 06:11:59;;;;;;;4.60;2.97;;;;;;;23.28;46.17;94901.75;5109910;27;20073;-80
2022/08/03 06:14:25;;;;;;;4.35;2.65;;;;;;;23.42;45.55;94949.25;5099194;27;20046;-79
2022/08/03 06:16:50;;;;;;;5.72;2.60;;;;;;;23.29;46.90;94940.47;5113544;27;20034;-77
2022/08/03 06:19:16;;;;;;;6.32;3.10;;;;;;;23.51;46.79;94933.94;5093683;28;20047;-84
2022/08/03 06:21:42;;;;;;;12.77;2.45;;;;;;;23.52;46.18;94921.53;5081727;27;20539;-81
2022/08/03 06:24:07;;;;;;;6.45;2.90;;;;;;;23.61;45.94;94944.16;5085532;27;20027;-78
2022/08/03 06:26:33;;;;;;;5.47;2.58;;;;;;;23.37;46.21;94900.53;5113349;27;20107;-81
2022/08/03 06:28:58;;;;;;;5.00;2.55;;;;;;;23.73;46.20;94942.53;5111551;27;20584;-81
2022/08/03 06:31:25;;;;;;;5.05;2.70;;;;;;;23.39;46.04;94885.25;5110276;27;20027;-81
2022/08/03 06:33:51;;;;;;;8.20;2.65;;;;;;;23.72;46.96;94934.81;5099282;27;21508;-79
2022/08/03 06:36:17;;;;;;;5.43;2.58;;;;;;;23.68;46.09;94888.47;5094864;28;20044;-78
2022/08/03 06:38:42;;;;;;;9.43;2.95;;;;;;;23.99;46.42;94935.59;5094686;28;20035;-78
2022/08/03 06:41:08;;;;;;;6.93;2.70;;;;;;;24.14;45.71;94927.38;5098037;28;20023;-79
2022/08/03 06:43:36;;;;;;;11.38;3.15;;;;;;;24.19;45.17;94925.75;5094949;28;20028;-78
2022/08/03 06:46:02;;;;;;;6.30;2.70;;;;;;;24.01;45.40;94883.94;5089160;27;20047;-78
2022/08/03 06:48:29;;;;;;;3.67;2.60;;;;;;;24.14;44.88;94884.94;5100437;28;20055;-79
2022/08/03 06:50:54;;;;;;;7.00;2.67;;;;;;;24.56;44.06;94923.38;5103840;28;20407;-78
2022/08/03 06:53:20;;;;;;;5.75;2.88;;;;;;;24.69;44.33;94922.53;5095030;28;20057;-78
2022/08/03 06:55:45;;;;;;;4.50;2.20;;;;;;;24.84;43.38;94922.22;5077842;28;20058;-78
2022/08/03 06:58:11;;;;;;;3.78;2.15;;;;;;;24.63;43.09;94872.91;5072349;28;20032;-78
2022/08/03 07:00:37;;;;;;;13.82;2.35;;;;;;;25.06;42.72;94920.88;5076753;28;20486;-78
2022/08/03 07:03:03;;;;;;;5.50;2.38;;;;;;;25.27;42.58;94926.88;5105984;28;20058;-77
2022/08/03 07:05:29;;;;;;;8.27;2.70;;;;;;;25.45;41.91;94926.97;5094610;28;20028;-78
2022/08/03 07:07:56;;;;;;;6.55;2.38;;;;;;;25.50;41.23;94907.72;5095207;28;20123;-78
2022/08/03 07:10:22;;;;;;;3.83;2.03;;;;;;;25.72;40.64;94924.09;5080172;28;20120;-78
2022/08/03 07:12:47;;;;;;;5.22;2.47;;;;;;;25.86;41.76;94917.66;5111461;28;20073;-78
2022/08/03 07:15:13;;;;;;;5.57;2.30;;;;;;;25.79;39.78;94903.56;5092083;28;20488;-77
2022/08/03 07:17:38;;;;;;;4.63;2.30;;;;;;;25.79;39.52;94883.09;5078360;28;20028;-78
2022/08/03 07:20:05;;;;;;;4.82;2.20;;;;;;;25.84;40.04;94883.28;5102842;28;20028;-78
2022/08/03 07:22:31;;;;;;;4.25;2.20;;;;;;;26.05;39.68;94894.53;5091074;27;20107;-78
2022/08/03 07:24:57;;;;;;;3.10;2.10;;;;;;;25.99;38.96;94882.09;5089050;28;20474;-78
2022/08/03 07:27:22;;;;;;;4.72;2.10;;;;;;;26.25;39.29;94921.75;5107386;27;20031;-78
2022/08/03 07:29:48;;;;;;;3.38;1.92;;;;;;;26.04;38.85;94884.91;5066133;28;20042;-78
2022/08/03 07:32:13;;;;;;;3.30;2.13;;;;;;;26.26;39.25;94906.59;5105546;28;20067;-78
2022/08/03 07:34:39;;;;;;;6.07;2.38;;;;;;;26.09;38.98;94869.09;5078674;28;20028;-78
2022/08/03 07:37:04;;;;;;;5.00;2.15;;;;;;;26.62;38.84;94928.94;5102158;28;20088;-78
2022/08/03 07:39:29;;;;;;;4.63;2.22;;;;;;;26.70;37.90;94925.97;5093136;28;20142;-78
2022/08/03 07:41:55;;;;;;;6.72;2.22;;;;;;;26.71;38.21;94922.25;5073995;28;20047;-78
2022/08/03 07:44:21;;;;;;;6.38;2.28;;;;;;;26.64;37.91;94898.38;5080921;27;20046;-78
2022/08/03 07:46:46;;;;;;;4.43;2.05;;;;;;;26.99;37.99;94929.66;5104172;27;20122;-78
2022/08/03 07:49:12;;;;;;;5.63;1.90;;;;;;;26.74;37.20;94882.66;5117803;27;20561;-78
2022/08/03 07:51:37;;;;;;;5.90;2.25;;;;;;;27.03;36.77;94930.84;5120279;27;20519;-78
2022/08/03 07:54:03;;;;;;;3.15;2.00;;;;;;;26.94;35.63;94926.84;5097898;27;20023;-78
2022/08/03 07:56:28;;;;;;;3.97;1.92;;;;;;;26.80;36.06;94909.44;5093006;27;20037;-78
2022/08/03 07:58:54;;;;;;;5.18;1.95;;;;;;;26.84;35.80;94906.09;5112369;27;20043;-78
2022/08/03 08:01:20;;;;;;;3.80;1.70;;;;;;;27.15;36.24;94934.34;5092090;28;20077;-77
2022/08/03 08:03:46;;;;;;;5.75;2.30;;;;;;;27.04;36.13;94926.31;5114142;27;20275;-77
2022/08/03 08:06:11;;;;;;;5.13;2.20;;;;;;;26.80;37.42;94888.13;5079036;28;20032;-77
2022/08/03 08:08:37;;;;;;;4.43;2.33;;;;;;;27.23;37.61;94935.13;5077857;28;20042;-77
2022/08/03 08:11:03;;;;;;;3.85;2.30;;;;;;;27.15;37.04;94902.38;5097594;28;20082;-77
2022/08/03 08:13:28;;;;;;;6.68;2.70;;;;;;;27.15;36.94;94894.38;5087358;27;20461;-78
2022/08/03 08:15:54;;;;;;;7.60;2.88;;;;;;;27.07;34.85;94894.69;5122550;27;20481;-77
2022/08/03 08:18:19;;;;;;;4.57;2.47;;;;;;;27.24;35.63;94934.06;5104211;27;20057;-78
2022/08/03 08:20:45;;;;;;;5.60;2.63;;;;;;;27.09;35.97;94932.59;5091960;28;20027;-77
2022/08/03 08:23:10;;;;;;;7.25;2.88;;;;;;;27.05;36.23;94934.13;5094539;27;20031;-77
2022/08/03 08:25:36;;;;;;;5.55;2.60;;;;;;;27.30;36.37;94936.66;5088503;28;20440;-75
2022/08/03 08:28:03;;;;;;;8.07;3.00;;;;;;;27.49;36.20;94932.03;5112498;28;20028;-77
2022/08/03 08:30:29;;;;;;;6.93;2.65;;;;;;;27.55;35.86;94925.81;5089757;27;20058;-77
2022/08/03 08:32:54;;;;;;;7.95;3.08;;;;;;;27.60;35.08;94925.91;5110342;27;20051;-77
2022/08/03 08:35:20;;;;;;;7.40;2.53;;;;;;;27.42;36.03;94888.66;5124072;27;20445;-77
2022/08/03 08:37:45;;;;;;;4.95;2.63;;;;;;;27.54;35.59;94894.81;5059999;27;20493;-77
2022/08/03 08:40:12;;;;;;;7.03;2.70;;;;;;;27.68;35.14;94900.75;5084988;28;20032;-78
2022/08/03 08:42:38;;;;;;;7.82;2.80;;;;;;;27.51;34.75;94886.47;5070294;28;20562;-77
2022/08/03 08:45:05;;;;;;;7.85;2.92;;;;;;;27.40;34.39;94896.88;5088839;28;20048;-77
2022/08/03 08:47:31;;;;;;;6.43;2.97;;;;;;;27.73;35.51;94916.06;5073526;28;20031;-77
2022/08/03 08:49:57;;;;;;;6.60;2.85;;;;;;;27.54;35.42;94924.16;5107759;27;20055;-77
2022/08/03 08:52:27;;;;;;;4.15;3.10;;;;;;;27.71;34.72;94916.28;5112964;27;20048;-78
2022/08/03 08:55:02;;;;;;;4.05;2.50;;;;;;;27.44;35.02;94867.09;5062953;28;20035;-77
2022/08/03 08:57:33;;;;;;;5.70;3.20;;;;;;;27.88;34.76;94904.94;5110160;27;20112;-77
2022/08/03 08:59:58;;;;;;;5.63;2.58;;;;;;;28.05;34.30;94921.88;5080008;28;20020;-77
2022/08/03 09:02:25;;;;;;;4.35;2.70;;;;;;;28.05;35.45;94921.88;5057601;28;20500;-78
2022/08/03 09:04:50;;;;;;;5.63;2.60;;;;;;;28.00;33.68;94887.91;5077701;28;20030;-78
2022/08/03 09:07:16;;;;;;;6.35;2.60;;;;;;;28.26;34.01;94913.28;5061661;28;20099;-77
2022/08/03 09:09:42;;;;;;;5.78;2.70;;;;;;;28.25;33.22;94909.00;5087479;28;20473;-78
2022/08/03 09:12:07;;;;;;;5.53;2.80;;;;;;;28.12;33.70;94871.06;5092762;28;20588;-77
2022/08/03 09:14:33;;;;;;;3.53;2.33;;;;;;;28.36;33.93;94896.66;5094768;28;20024;-77
2022/08/03 09:17:00;;;;;;;5.82;2.65;;;;;;;28.30;33.85;94886.91;5102369;27;20039;-77
2022/08/03 09:19:26;;;;;;;3.60;2.33;;;;;;;28.52;33.56;94906.63;5074314;28;20027;-77
2022/08/03 09:22:15;;;;;;;2.95;2.10;;;;;;;28.66;32.78;94914.38;5073906;28;20028;-77
2022/08/03 09:25:03;;;;;;;5.07;2.45;;;;;;;28.47;31.74;94874.47;5111073;28;20119;-77
2022/08/03 09:27:40;;;;;;;3.40;2.33;;;;;;;28.47;31.70;94866.47;5074091;28;20456;-77
2022/08/03 09:30:12;;;;;;;3.33;2.20;;;;;;;28.61;31.37;94907.09;5085787;28;20031;-77
2022/08/03 09:32:37;;;;;;;3.47;2.08;;;;;;;28.20;31.78;94854.66;5094488;28;20132;-77
2022/08/03 09:35:04;;;;;;;7.10;2.28;;;;;;;28.33;31.29;94858.91;5106331;27;20024;-77
2022/08/03 09:37:29;;;;;;;2.70;2.00;;;;;;;28.28;31.68;94851.63;5103669;27;20409;-77
2022/08/03 09:39:55;;;;;;;3.78;2.40;;;;;;;28.30;31.84;94892.25;5092912;28;20034;-77
2022/08/03 09:42:22;;;;;;;4.05;2.28;;;;;;;28.48;32.28;94891.31;5075035;28;20096;-77
2022/08/03 09:44:49;;;;;;;3.35;2.40;;;;;;;28.43;32.80;94859.97;5102026;28;20044;-77
2022/08/03 09:47:16;;;;;;;3.13;2.00;;;;;;;28.61;31.44;94892.88;5117571;27;20032;-77
2022/08/03 09:49:42;;;;;;;5.72;2.33;;;;;;;28.48;31.56;94860.06;5097159;27;20031;-77
2022/08/03 09:52:17;;;;;;;6.63;2.30;;;;;;;28.91;32.24;94898.00;5072761;28;20462;-77
2022/08/03 09:54:43;;;;;;;7.38;2.42;;;;;;;28.96;32.31;94888.22;5091577;28;20024;-77
2022/08/03 09:57:19;;;;;;;5.63;2.38;;;;;;;28.80;31.47;94888.97;5110365;28;20112;-76
2022/08/03 09:59:45;;;;;;;3.33;2.50;;;;;;;28.92;32.05;94889.75;5069319;28;20042;-77
2022/08/03 10:02:23;;;;;;;3.55;2.10;;;;;;;28.95;31.62;94877.78;5106558;27;20032;-76
2022/08/03 10:04:51;;;;;;;8.55;2.50;;;;;;;28.86;31.43;94868.50;5077485;27;20046;-80
2022/08/03 10:07:17;;;;;;;3.92;2.50;;;;;;;29.13;31.84;94858.84;5114670;27;20043;-79
2022/08/03 10:09:58;;;;;;;4.20;2.50;;;;;;;29.27;29.77;94872.72;5091396;28;20081;-79
2022/08/03 10:12:24;;;;;;;3.40;2.38;;;;;;;29.31;30.59;94879.22;5120979;27;20028;-79
2022/08/03 10:14:51;;;;;;;3.28;2.30;;;;;;;28.94;30.21;94834.16;5111852;27;20020;-79
2022/08/03 10:17:16;;;;;;;4.35;2.60;;;;;;;29.39;30.75;94873.47;5100472;27;20059;-79
2022/08/03 10:19:42;;;;;;;5.35;2.42;;;;;;;29.28;29.42;94847.63;5090760;28;20037;-78
2022/08/03 10:22:28;;;;;;;4.28;2.63;;;;;;;29.48;30.47;94868.53;5111011;28;20123;-78
2022/08/03 10:24:57;;;;;;;3.10;2.72;;;;;;;29.33;29.78;94826.28;5109571;28;20037;-78
2022/08/03 10:27:23;;;;;;;4.38;2.45;;;;;;;29.31;29.75;94825.75;5097258;28;20032;-76
2022/08/03 10:29:54;;;;;;;4.60;2.60;;;;;;;29.53;30.90;94836.50;5102465;28;20035;-78
2022/08/03 10:32:42;;;;;;;3.85;2.42;;;;;;;29.87;31.01;94859.78;5071681;28;20402;-78
2022/08/03 10:35:11;;;;;;;4.03;2.30;;;;;;;29.81;29.60;94857.03;5080244;28;20028;-78
2022/08/03 10:37:42;;;;;;;4.07;2.35;;;;;;;29.81;29.69;94865.06;5090836;28;20024;-78
2022/08/03 10:40:09;;;;;;;3.53;2.50;;;;;;;29.48;29.83;94806.19;5105709;28;20028;-77
2022/08/03 10:42:34;;;;;;;3.25;2.53;;;;;;;29.45;30.34;94822.72;5090961;28;20489;-78
2022/08/03 10:45:03;;;;;;;3.30;2.38;;;;;;;29.35;30.36;94821.50;5075692;28;20058;-77
2022/08/03 10:47:29;;;;;;;8.55;2.50;;;;;;;29.26;30.76;94825.66;5109326;28;20401;-77
2022/08/03 10:49:55;;;;;;;4.43;2.40;;;;;;;29.18;30.36;94810.00;5103136;28;20035;-77
2022/08/03 10:52:20;;;;;;;3.03;2.35;;;;;;;29.07;30.02;94822.41;5090534;28;20024;-77
2022/08/03 10:57:50;;;;;;;4.90;2.38;;;;;;;29.12;30.38;94853.78;5108665;28;20088;-77
2022/08/03 11:00:22;;;;;;;4.28;2.45;;;;;;;28.96;30.98;94820.56;5100709;28;20028;-77
2022/08/03 11:03:10;;;;;;;3.50;2.30;;;;;;;29.34;30.99;94854.66;5056249;28;20024;-77
2022/08/03 11:05:38;;;;;;;5.18;2.33;;;;;;;29.40;30.83;94856.38;5086696;28;20089;-78
2022/08/03 11:08:26;;;;;;;4.28;2.47;;;;;;;29.33;29.76;94858.38;5109257;28;20549;-77
2022/08/03 11:11:00;;;;;;;3.30;2.50;;;;;;;29.32;30.60;94846.06;5101169;28;20027;-77
2022/08/03 11:13:27;;;;;;;2.65;2.20;;;;;;;29.34;29.64;94841.28;5093688;28;20098;-77
2022/08/03 11:15:54;;;;;;;4.15;2.78;;;;;;;29.43;29.75;94833.66;5072825;28;20027;-77
2022/08/03 11:18:20;;;;;;;2.83;2.10;;;;;;;29.58;29.93;94835.75;5092958;28;20048;-78
2022/08/03 11:20:49;;;;;;;4.75;2.10;;;;;;;29.67;31.53;94841.53;5097688;28;20032;-77
2022/08/03 11:23:15;;;;;;;3.85;2.65;;;;;;;29.67;30.35;94844.22;5074836;28;20023;-77
2022/08/03 11:26:09;;;;;;;3.08;2.72;;;;;;;29.65;29.36;94832.97;5102566;28;20089;-78
2022/08/03 11:28:35;;;;;;;3.28;2.50;;;;;;;29.45;30.57;94787.94;5085637;28;20058;-78
2022/08/03 11:31:22;;;;;;;3.53;2.33;;;;;;;29.70;30.92;94825.81;5086867;28;20480;-78
2022/08/03 11:34:06;;;;;;;4.93;2.08;;;;;;;29.62;30.26;94828.88;5108210;28;20034;-78
2022/08/03 11:37:09;;;;;;;3.72;2.10;;;;;;;29.66;29.68;94830.03;5117595;28;20028;-78
2022/08/03 11:39:39;;;;;;;3.65;2.50;;;;;;;29.33;30.36;94774.66;5083608;28;20059;-78
2022/08/03 11:42:23;;;;;;;3.30;2.55;;;;;;;29.58;31.14;94822.38;5079846;28;20083;-78
2022/08/03 11:44:53;;;;;;;6.15;2.60;;;;;;;29.23;30.92;94772.66;5104091;28;20490;-78
2022/08/03 11:47:21;;;;;;;3.13;2.40;;;;;;;29.23;30.80;94791.38;5094716;28;20043;-78